createdAt,value
2018-11-26T00:00:36.471Z,100493.69
2018-11-26T00:03:09.386Z,100490.27
2018-11-26T00:05:38.633Z,100493.52
2018-11-26T00:08:11.484Z,100489.28
2018-11-26T00:10:50.879Z,100491.89
2018-11-26T00:13:19.386Z,100486.50
2018-11-26T00:15:48.765Z,100490.39
2018-11-26T00:18:17.243Z,100476.84
2018-11-26T00:20:45.781Z,100480.77
2018-11-26T00:23:14.326Z,100474.09
2018-11-26T00:25:42.918Z,100470.17
2018-11-26T00:28:11.454Z,100473.08
2018-11-26T00:30:40.171Z,100464.55
2018-11-26T00:33:08.707Z,100470.02
2018-11-26T00:35:37.262Z,100466.09
2018-11-26T00:38:05.890Z,100467.87
2018-11-26T00:40:34.365Z,100470.81
2018-11-26T00:43:02.953Z,100464.59
2018-11-26T00:45:31.509Z,100462.48
2018-11-26T00:48:00.066Z,100466.45
2018-11-26T00:50:28.534Z,100456.17
2018-11-26T00:52:57.149Z,100455.53
2018-11-26T00:55:25.679Z,100452.02
2018-11-26T00:57:54.165Z,100457.44
2018-11-26T01:00:22.772Z,100454.98
2018-11-26T01:02:51.300Z,100468.10
2018-11-26T01:05:36.521Z,100464.14
2018-11-26T01:08:05.250Z,100466.41
2018-11-26T01:10:33.827Z,100478.02
2018-11-26T01:13:02.353Z,100473.50
2018-11-26T01:15:30.879Z,100472.34
2018-11-26T01:17:59.374Z,100471.52
2018-11-26T01:20:27.874Z,100469.06
2018-11-26T01:22:56.373Z,100472.98
2018-11-26T01:25:24.882Z,100469.41
2018-11-26T01:27:53.383Z,100470.05
2018-11-26T01:30:21.934Z,100478.22
2018-11-26T01:32:50.506Z,100465.30
2018-11-26T01:35:19.076Z,100469.70
2018-11-26T01:37:47.566Z,100471.33
2018-11-26T01:40:21.572Z,100466.44
2018-11-26T01:42:50.385Z,100465.65
2018-11-26T01:45:19.005Z,100468.42
2018-11-26T01:47:47.544Z,100462.87
2018-11-26T01:50:16.045Z,100469.77
2018-11-26T01:52:44.554Z,100465.13
2018-11-26T01:55:13.050Z,100463.38
2018-11-26T01:57:41.606Z,100475.98
2018-11-26T02:00:14.742Z,100475.95
2018-11-26T02:02:43.455Z,100465.00
2018-11-26T02:05:12.178Z,100467.78
2018-11-26T02:07:40.674Z,100469.41
2018-11-26T02:10:12.376Z,100467.59
2018-11-26T02:12:40.930Z,100456.97
2018-11-26T02:15:19.640Z,100461.56
2018-11-26T02:17:48.250Z,100463.22
2018-11-26T02:20:16.802Z,100458.44
2018-11-26T02:22:45.286Z,100457.28
2018-11-26T02:25:13.807Z,100458.95
2018-11-26T02:27:42.359Z,100465.80
2018-11-26T02:30:10.932Z,100461.27
2018-11-26T02:32:39.386Z,100460.60
2018-11-26T02:35:08.560Z,100466.00
2018-11-26T02:37:37.123Z,100465.17
2018-11-26T02:40:07.376Z,100464.18
2018-11-26T02:42:35.929Z,100461.53
2018-11-26T02:45:04.769Z,100455.21
2018-11-26T02:47:33.262Z,100444.88
2018-11-26T02:50:01.814Z,100449.27
2018-11-26T02:52:30.350Z,100452.11
2018-11-26T02:54:58.899Z,100450.45
2018-11-26T02:57:27.422Z,100453.04
2018-11-26T02:59:55.958Z,100455.02
2018-11-26T03:02:24.483Z,100454.31
2018-11-26T03:04:53.018Z,100459.39
2018-11-26T03:07:21.530Z,100453.20
2018-11-26T03:09:50.088Z,100451.41
2018-11-26T03:12:18.615Z,100446.47
2018-11-26T03:14:47.200Z,100444.20
2018-11-26T03:17:15.698Z,100442.89
2018-11-26T03:19:44.203Z,100440.92
2018-11-26T03:22:12.759Z,100439.29
2018-11-26T03:24:41.282Z,100441.42
2018-11-26T03:27:09.762Z,100432.42
2018-11-26T03:29:38.280Z,100441.23
2018-11-26T03:32:06.866Z,100443.41
2018-11-26T03:34:35.421Z,100435.02
2018-11-26T03:37:03.946Z,100432.75
2018-11-26T03:39:32.469Z,100434.22
2018-11-26T03:42:00.957Z,100438.97
2018-11-26T03:44:29.471Z,100442.58
2018-11-26T03:46:57.930Z,100435.88
2018-11-26T03:49:26.437Z,100441.08
2018-11-26T03:51:55.027Z,100442.70
2018-11-26T03:54:23.569Z,100446.50
2018-11-26T03:56:52.277Z,100447.17
2018-11-26T03:59:20.786Z,100446.47
2018-11-26T04:01:49.261Z,100453.36
2018-11-26T04:04:17.851Z,100458.91
2018-11-26T04:06:46.383Z,100461.72
2018-11-26T04:09:14.898Z,100463.98
2018-11-26T04:11:43.454Z,100467.95
2018-11-26T04:14:11.992Z,100466.80
2018-11-26T04:16:40.697Z,100458.95
2018-11-26T04:19:09.203Z,100462.20
2018-11-26T04:21:37.668Z,100463.54
2018-11-26T04:24:06.588Z,100463.86
2018-11-26T04:26:35.154Z,100471.55
2018-11-26T04:29:03.668Z,100474.33
2018-11-26T04:31:32.989Z,100477.23
2018-11-26T04:34:01.658Z,100464.50
2018-11-26T04:36:30.143Z,100465.48
2018-11-26T04:38:58.856Z,100465.20
2018-11-26T04:41:27.352Z,100463.67
2018-11-26T04:43:55.873Z,100472.50
2018-11-26T04:46:24.409Z,100476.63
2018-11-26T04:48:52.941Z,100476.75
2018-11-26T04:51:21.585Z,100471.07
2018-11-26T04:53:50.115Z,100474.52
2018-11-26T04:56:18.610Z,100478.77
2018-11-26T04:58:47.154Z,100467.47
2018-11-26T05:01:15.656Z,100468.61
2018-11-26T05:03:44.322Z,100461.17
2018-11-26T05:06:12.887Z,100461.88
2018-11-26T05:08:41.475Z,100468.77
2018-11-26T05:11:10.051Z,100468.58
2018-11-26T05:13:38.572Z,100475.44
2018-11-26T05:16:07.987Z,100465.77
2018-11-26T05:18:36.558Z,100467.75
2018-11-26T05:21:05.176Z,100467.40
2018-11-26T05:23:33.705Z,100468.70
2018-11-26T05:26:02.193Z,100467.75
2018-11-26T05:28:30.698Z,100470.66
2018-11-26T05:30:59.199Z,100474.22
2018-11-26T05:33:27.743Z,100473.78
2018-11-26T05:35:56.268Z,100474.22
2018-11-26T05:38:25.882Z,100470.81
2018-11-26T05:40:54.552Z,100473.58
2018-11-26T05:43:23.061Z,100479.77
2018-11-26T05:45:51.599Z,100482.42
2018-11-26T05:48:20.079Z,100479.80
2018-11-26T05:50:48.607Z,100480.25
2018-11-26T05:53:17.173Z,100479.97
2018-11-26T05:55:45.690Z,100488.01
2018-11-26T05:58:14.192Z,100484.53
2018-11-26T06:00:42.765Z,100486.11
2018-11-26T06:03:11.266Z,100492.17
2018-11-26T06:05:39.849Z,100485.31
2018-11-26T06:08:08.439Z,100480.92
2018-11-26T06:10:36.927Z,100485.16
2018-11-26T06:13:06.353Z,100491.74
2018-11-26T06:15:35.045Z,100490.95
2018-11-26T06:18:03.561Z,100497.64
2018-11-26T06:20:32.207Z,100505.93
2018-11-26T06:23:00.832Z,100502.56
2018-11-26T06:25:29.336Z,100504.66
2018-11-26T06:27:57.989Z,100510.53
2018-11-26T06:30:26.545Z,100514.14
2018-11-26T06:32:55.065Z,100517.86
2018-11-26T06:35:24.159Z,100515.08
2018-11-26T06:37:52.711Z,100520.16
2018-11-26T06:40:21.254Z,100512.78
2018-11-26T06:42:49.819Z,100516.52
2018-11-26T06:45:20.303Z,100527.13
2018-11-26T06:47:48.839Z,100532.52
2018-11-26T06:50:18.571Z,100522.05
2018-11-26T06:52:47.140Z,100525.55
2018-11-26T06:55:16.774Z,100527.64
2018-11-26T06:57:45.349Z,100525.30
2018-11-26T07:00:15.981Z,100524.31
2018-11-26T07:02:44.538Z,100525.30
2018-11-26T07:05:14.402Z,100526.81
2018-11-26T07:07:42.984Z,100532.57
2018-11-26T07:10:12.383Z,100531.69
2018-11-26T07:12:41.240Z,100532.98
2018-11-26T07:15:15.599Z,100536.39
2018-11-26T07:17:44.170Z,100541.16
2018-11-26T07:20:14.574Z,100536.23
2018-11-26T07:22:43.110Z,100547.38
2018-11-26T07:25:13.767Z,100547.70
2018-11-26T07:27:42.795Z,100553.91
2018-11-26T07:30:16.477Z,100552.25
2018-11-26T07:32:45.195Z,100551.89
2018-11-26T07:35:14.288Z,100560.45
2018-11-26T07:37:42.973Z,100558.52
2018-11-26T07:40:17.513Z,100568.51
2018-11-26T07:42:52.496Z,100565.38
2018-11-26T07:45:21.100Z,100570.33
2018-11-26T07:47:49.759Z,100568.98
2018-11-26T07:50:18.466Z,100569.19
2018-11-26T07:52:46.964Z,100571.76
2018-11-26T07:55:19.396Z,100573.70
2018-11-26T07:57:47.981Z,100578.76
2018-11-26T08:00:17.550Z,100582.47
2018-11-26T08:02:46.451Z,100583.22
2018-11-26T08:05:16.046Z,100584.68
2018-11-26T08:07:44.779Z,100586.50
2018-11-26T08:10:14.347Z,100590.42
2018-11-26T08:12:43.017Z,100592.05
2018-11-26T08:15:12.954Z,100596.30
2018-11-26T08:17:41.627Z,100601.53
2018-11-26T08:20:10.548Z,100608.85
2018-11-26T08:22:39.048Z,100606.85
2018-11-26T08:25:24.284Z,100607.90
2018-11-26T08:27:53.037Z,100614.39
2018-11-26T08:30:23.594Z,100610.58
2018-11-26T08:32:53.397Z,100618.62
2018-11-26T08:35:21.953Z,100621.23
2018-11-26T08:37:55.625Z,100627.77
2018-11-26T08:40:29.024Z,100626.80
2018-11-26T08:43:15.572Z,100627.69
2018-11-26T08:45:51.340Z,100627.16
2018-11-26T08:48:25.155Z,100630.17
2018-11-26T08:50:53.816Z,100637.52
2018-11-26T08:53:22.573Z,100636.20
2018-11-26T08:55:51.164Z,100637.30
2018-11-26T08:58:19.783Z,100639.77
2018-11-26T09:00:52.465Z,100643.58
2018-11-26T09:03:21.129Z,100646.83
2018-11-26T09:05:56.002Z,100650.06
2018-11-26T09:08:24.598Z,100645.30
2018-11-26T09:10:53.144Z,100659.08
2018-11-26T09:13:21.695Z,100651.63
2018-11-26T09:15:51.115Z,100657.07
2018-11-26T09:18:19.841Z,100666.38
2018-11-26T09:20:48.328Z,100662.77
2018-11-26T09:23:16.861Z,100656.44
2018-11-26T09:25:45.392Z,100660.47
2018-11-26T09:28:14.036Z,100663.14
2018-11-26T09:30:42.857Z,100665.14
2018-11-26T09:33:11.428Z,100664.61
2018-11-26T09:35:39.962Z,100668.21
2018-11-26T09:38:08.571Z,100665.39
2018-11-26T09:40:37.147Z,100661.59
2018-11-26T09:43:06.692Z,100669.74
2018-11-26T09:45:39.996Z,100665.08
2018-11-26T09:48:04.186Z,100675.02
2018-11-26T09:50:32.719Z,100672.03
2018-11-26T09:53:01.208Z,100677.70
2018-11-26T09:55:29.765Z,100676.39
2018-11-26T09:57:58.415Z,100674.15
2018-11-26T10:00:26.936Z,100669.48
2018-11-26T10:02:55.513Z,100674.36
2018-11-26T10:05:25.311Z,100674.04
2018-11-26T10:07:53.863Z,100673.88
2018-11-26T10:10:22.420Z,100679.69
2018-11-26T10:12:51.103Z,100669.44
2018-11-26T10:15:24.471Z,100676.25
2018-11-26T10:17:53.170Z,100670.96
2018-11-26T10:20:21.730Z,100675.03
2018-11-26T10:22:51.162Z,100673.05
2018-11-26T10:25:21.417Z,100671.80
2018-11-26T10:27:50.066Z,100671.48
2018-11-26T10:30:19.956Z,100666.50
2018-11-26T10:32:49.359Z,100676.43
2018-11-26T10:35:18.692Z,100667.52
2018-11-26T10:37:48.900Z,100665.86
2018-11-26T10:40:19.408Z,100669.70
2018-11-26T10:42:47.988Z,100664.19
2018-11-26T10:45:17.566Z,100661.20
2018-11-26T10:47:46.110Z,100663.25
2018-11-26T10:50:16.645Z,100659.48
2018-11-26T10:52:47.471Z,100653.64
2018-11-26T10:55:18.316Z,100655.55
2018-11-26T10:57:46.852Z,100653.72
2018-11-26T11:00:21.323Z,100654.09
2018-11-26T11:02:50.221Z,100653.66
2018-11-26T11:05:18.803Z,100655.23
2018-11-26T11:07:47.344Z,100663.84
2018-11-26T11:10:26.413Z,100664.73
2018-11-26T11:12:55.067Z,100669.12
2018-11-26T11:15:23.600Z,100663.53
2018-11-26T11:17:52.113Z,100664.11
2018-11-26T11:20:23.979Z,100665.36
2018-11-26T11:22:52.712Z,100659.02
2018-11-26T11:25:21.585Z,100660.75
2018-11-26T11:27:50.502Z,100662.89
2018-11-26T11:30:22.884Z,100660.76
2018-11-26T11:32:51.633Z,100666.77
2018-11-26T11:35:20.376Z,100666.23
2018-11-26T11:37:49.799Z,100664.93
2018-11-26T11:40:20.351Z,100666.62
2018-11-26T11:42:49.123Z,100670.96
2018-11-26T11:45:17.879Z,100669.48
2018-11-26T11:47:46.399Z,100668.87
2018-11-26T11:50:16.161Z,100663.27
2018-11-26T11:52:44.935Z,100663.38
2018-11-26T11:55:16.204Z,100663.20
2018-11-26T11:57:44.784Z,100671.11
2018-11-26T12:00:19.784Z,100663.31
2018-11-26T12:02:48.381Z,100666.82
2018-11-26T12:05:16.929Z,100669.44
2018-11-26T12:07:45.461Z,100669.64
2018-11-26T12:10:14.144Z,100679.38
2018-11-26T12:12:42.736Z,100669.22
2018-11-26T12:15:13.712Z,100669.48
2018-11-26T12:17:42.529Z,100664.27
2018-11-26T12:20:12.129Z,100673.94
2018-11-26T12:22:41.007Z,100675.95
2018-11-26T12:25:10.994Z,100673.97
2018-11-26T12:27:39.633Z,100676.96
2018-11-26T12:30:16.037Z,100677.17
2018-11-26T12:32:44.786Z,100678.34
2018-11-26T12:35:13.333Z,100676.38
2018-11-26T12:37:41.936Z,100663.71
2018-11-26T12:40:12.761Z,100675.43
2018-11-26T12:42:41.376Z,100674.86
2018-11-26T12:45:15.368Z,100678.59
2018-11-26T12:47:44.576Z,100672.56
2018-11-26T12:50:13.116Z,100676.53
2018-11-26T12:52:42.160Z,100671.61
2018-11-26T12:55:12.655Z,100674.94
2018-11-26T12:57:42.009Z,100670.35
2018-11-26T13:00:13.764Z,100673.95
2018-11-26T13:02:42.476Z,100678.17
2018-11-26T13:05:14.252Z,100671.44
2018-11-26T13:07:42.762Z,100672.44
2018-11-26T13:10:12.387Z,100674.27
2018-11-26T13:12:40.911Z,100666.11
2018-11-26T13:15:11.072Z,100663.41
2018-11-26T13:17:39.640Z,100667.47
2018-11-26T13:20:11.881Z,100669.62
2018-11-26T13:22:40.634Z,100672.11
2018-11-26T13:25:12.000Z,100669.34
2018-11-26T13:27:41.901Z,100664.39
2018-11-26T13:30:13.608Z,100674.02
2018-11-26T13:32:42.513Z,100672.70
2018-11-26T13:35:12.340Z,100674.00
2018-11-26T13:37:40.933Z,100665.81
2018-11-26T13:40:11.918Z,100679.58
2018-11-26T13:42:40.631Z,100681.52
2018-11-26T13:45:11.562Z,100672.14
2018-11-26T13:47:40.530Z,100671.81
2018-11-26T13:50:25.055Z,100673.80
2018-11-26T13:52:53.687Z,100677.50
2018-11-26T13:55:22.296Z,100682.65
2018-11-26T13:57:50.865Z,100678.45
2018-11-26T14:00:19.449Z,100686.57
2018-11-26T14:02:47.989Z,100685.16
2018-11-26T14:05:17.446Z,100687.87
2018-11-26T14:07:46.641Z,100687.23
2018-11-26T14:10:23.129Z,100686.05
2018-11-26T14:12:54.037Z,100685.04
2018-11-26T14:15:22.647Z,100684.05
2018-11-26T14:17:51.215Z,100687.09
2018-11-26T14:20:19.919Z,100685.11
2018-11-26T14:22:48.438Z,100693.67
2018-11-26T14:25:18.006Z,100689.07
2018-11-26T14:27:47.093Z,100698.42
2018-11-26T14:30:20.850Z,100704.04
2018-11-26T14:32:50.314Z,100707.10
2018-11-26T14:35:18.954Z,100708.80
2018-11-26T14:37:49.645Z,100704.77
2018-11-26T14:40:28.964Z,100712.34
2018-11-26T14:42:57.666Z,100714.12
2018-11-26T14:45:26.264Z,100718.95
2018-11-26T14:47:54.878Z,100717.41
2018-11-26T14:50:23.425Z,100722.34
2018-11-26T14:52:58.164Z,100726.20
2018-11-26T14:55:27.997Z,100725.75
2018-11-26T14:57:57.210Z,100724.55
2018-11-26T15:00:25.765Z,100722.73
2018-11-26T15:02:54.353Z,100723.66
2018-11-26T15:05:22.922Z,100727.25
2018-11-26T15:07:51.484Z,100738.75
2018-11-26T15:10:21.287Z,100735.37
2018-11-26T15:12:49.872Z,100740.53
2018-11-26T15:15:22.938Z,100737.12
2018-11-26T15:17:51.652Z,100737.23
2018-11-26T15:20:22.126Z,100739.80
2018-11-26T15:22:51.293Z,100740.28
2018-11-26T15:25:21.026Z,100744.81
2018-11-26T15:27:49.925Z,100751.48
2018-11-26T15:30:19.633Z,100753.27
2018-11-26T15:32:48.260Z,100756.02
2018-11-26T15:35:17.824Z,100752.72
2018-11-26T15:37:46.487Z,100759.21
2018-11-26T15:40:16.122Z,100761.60
2018-11-26T15:42:44.765Z,100759.14
2018-11-26T15:45:16.408Z,100763.38
2018-11-26T15:47:45.107Z,100760.59
2018-11-26T15:50:13.746Z,100770.05
2018-11-26T15:52:42.449Z,100770.05
2018-11-26T15:55:16.221Z,100768.70
2018-11-26T15:57:44.784Z,100773.28
2018-11-26T16:00:16.218Z,100776.80
2018-11-26T16:02:44.905Z,100777.44
2018-11-26T16:05:15.555Z,100784.30
2018-11-26T16:07:44.412Z,100781.83
2018-11-26T16:10:14.029Z,100781.97
2018-11-26T16:12:42.992Z,100784.03
2018-11-26T16:15:15.892Z,100781.48
2018-11-26T16:17:44.397Z,100788.01
2018-11-26T16:20:15.310Z,100783.88
2018-11-26T16:22:43.915Z,100783.88
2018-11-26T16:25:15.754Z,100785.60
2018-11-26T16:27:44.292Z,100785.74
2018-11-26T16:30:14.727Z,100781.50
2018-11-26T16:32:44.710Z,100780.45
2018-11-26T16:35:16.657Z,100778.53
2018-11-26T16:37:45.195Z,100779.42
2018-11-26T16:40:16.607Z,100779.34
2018-11-26T16:42:45.253Z,100781.29
2018-11-26T16:45:17.775Z,100780.23
2018-11-26T16:47:47.401Z,100787.23
2018-11-26T16:50:17.069Z,100791.31
2018-11-26T16:52:45.713Z,100789.73
2018-11-26T16:55:15.020Z,100793.75
2018-11-26T16:57:43.752Z,100796.97
2018-11-26T17:00:14.487Z,100800.28
2018-11-26T17:02:43.057Z,100797.80
2018-11-26T17:05:13.098Z,100801.80
2018-11-26T17:07:41.709Z,100796.87
2018-11-26T17:10:11.299Z,100803.25
2018-11-26T17:12:40.231Z,100798.92
2018-11-26T17:15:16.358Z,100799.16
2018-11-26T17:17:45.022Z,100804.19
2018-11-26T17:20:16.000Z,100806.94
2018-11-26T17:22:44.744Z,100802.83
2018-11-26T17:25:14.392Z,100803.44
2018-11-26T17:27:43.571Z,100805.30
2018-11-26T17:30:14.173Z,100806.24
2018-11-26T17:32:42.849Z,100808.71
2018-11-26T17:35:12.623Z,100807.41
2018-11-26T17:37:43.001Z,100811.13
2018-11-26T17:40:15.017Z,100808.38
2018-11-26T17:42:43.756Z,100821.89
2018-11-26T17:45:13.306Z,100822.45
2018-11-26T17:47:43.951Z,100825.81
2018-11-26T17:50:25.418Z,100822.31
2018-11-26T17:52:53.976Z,100827.61
2018-11-26T17:55:22.493Z,100832.09
2018-11-26T17:57:50.988Z,100831.11
2018-11-26T18:00:23.916Z,100835.35
2018-11-26T18:02:52.550Z,100840.98
2018-11-26T18:05:22.479Z,100850.45
2018-11-26T18:07:53.107Z,100848.06
2018-11-26T18:10:21.649Z,100850.67
2018-11-26T18:12:50.203Z,100854.96
2018-11-26T18:15:18.806Z,100860.22
2018-11-26T18:17:47.500Z,100855.47
2018-11-26T18:20:18.396Z,100854.16
2018-11-26T18:22:48.099Z,100861.62
2018-11-26T18:25:17.092Z,100863.48
2018-11-26T18:27:52.298Z,100859.10
2018-11-26T18:30:24.572Z,100860.89
2018-11-26T18:32:53.152Z,100861.39
2018-11-26T18:35:21.806Z,100871.83
2018-11-26T18:37:50.338Z,100875.03
2018-11-26T18:40:18.990Z,100872.16
2018-11-26T18:42:47.507Z,100874.90
2018-11-26T18:45:18.157Z,100876.20
2018-11-26T18:47:47.368Z,100874.34
2018-11-26T18:50:19.805Z,100876.30
2018-11-26T18:52:49.145Z,100881.70
2018-11-26T18:55:17.838Z,100890.14
2018-11-26T18:57:46.418Z,100888.05
2018-11-26T19:00:17.995Z,100882.50
2018-11-26T19:02:46.597Z,100892.47
2018-11-26T19:05:15.887Z,100890.80
2018-11-26T19:07:44.489Z,100895.64
2018-11-26T19:10:14.170Z,100894.61
2018-11-26T19:12:43.413Z,100894.61
2018-11-26T19:15:14.769Z,100896.11
2018-11-26T19:17:43.378Z,100901.19
2018-11-26T19:20:12.711Z,100903.94
2018-11-26T19:22:41.736Z,100901.74
2018-11-26T19:25:11.887Z,100901.47
2018-11-26T19:27:40.441Z,100905.98
2018-11-26T19:30:11.479Z,100901.13
2018-11-26T19:32:40.164Z,100906.35
2018-11-26T19:35:10.245Z,100910.93
2018-11-26T19:37:38.815Z,100918.16
2018-11-26T19:40:11.610Z,100920.06
2018-11-26T19:42:40.309Z,100916.15
2018-11-26T19:45:15.064Z,100919.40
2018-11-26T19:47:43.750Z,100926.03
2018-11-26T19:50:14.501Z,100926.13
2018-11-26T19:52:43.194Z,100911.57
2018-11-26T19:55:18.200Z,100921.46
2018-11-26T19:57:46.785Z,100925.14
2018-11-26T20:00:25.140Z,100923.92
2018-11-26T20:05:01.127Z,100933.48
2018-11-26T20:07:29.698Z,100935.53
2018-11-26T20:09:58.323Z,100933.39
2018-11-26T20:12:26.860Z,100936.41
2018-11-26T20:14:55.368Z,100936.13
2018-11-26T20:17:23.916Z,100937.30
2018-11-26T20:19:52.460Z,100939.91
2018-11-26T20:22:21.022Z,100941.22
2018-11-26T20:24:49.686Z,100943.20
2018-11-26T20:27:18.202Z,100947.92
2018-11-26T20:29:46.751Z,100950.58
2018-11-26T20:32:15.297Z,100954.58
2018-11-26T20:34:43.924Z,100949.38
2018-11-26T20:37:12.458Z,100951.55
2018-11-26T20:39:41.022Z,100955.59
2018-11-26T20:42:09.608Z,100957.55
2018-11-26T20:44:38.120Z,100951.90
2018-11-26T20:47:07.262Z,100954.77
2018-11-26T20:49:35.906Z,100955.07
2018-11-26T20:52:04.444Z,100961.22
2018-11-26T20:54:33.689Z,100958.11
2018-11-26T20:57:02.229Z,100953.26
2018-11-26T20:59:30.897Z,100949.72
2018-11-26T21:01:59.471Z,100956.88
2018-11-26T21:04:28.101Z,100956.73
2018-11-26T21:06:56.716Z,100959.04
2018-11-26T21:09:25.221Z,100962.13
2018-11-26T21:11:53.748Z,100959.22
2018-11-26T21:14:22.439Z,100962.77
2018-11-26T21:16:51.033Z,100968.21
2018-11-26T21:19:19.711Z,100972.45
2018-11-26T21:21:48.314Z,100975.44
2018-11-26T21:24:16.876Z,100973.25
2018-11-26T21:26:45.474Z,100984.69
2018-11-26T21:29:14.069Z,100975.16
2018-11-26T21:31:42.673Z,100981.08
2018-11-26T21:34:11.255Z,100982.66
2018-11-26T21:36:39.777Z,100976.88
2018-11-26T21:39:10.176Z,100979.17
2018-11-26T21:41:38.742Z,100981.34
2018-11-26T21:44:07.288Z,100976.55
2018-11-26T21:46:35.901Z,100984.44
2018-11-26T21:49:04.561Z,100986.16
2018-11-26T21:51:33.478Z,100986.86
2018-11-26T21:54:01.756Z,100986.63
2018-11-26T21:56:30.314Z,100988.59
2018-11-26T21:58:58.884Z,100987.79
2018-11-26T22:01:27.427Z,100991.43
2018-11-26T22:03:56.029Z,100994.55
2018-11-26T22:06:24.630Z,100993.77
2018-11-26T22:08:53.327Z,100996.10
2018-11-26T22:11:21.884Z,101000.58
2018-11-26T22:13:50.448Z,100994.88
2018-11-26T22:16:18.984Z,100999.28
2018-11-26T22:18:47.529Z,101007.20
2018-11-26T22:21:16.082Z,101002.25
2018-11-26T22:23:44.676Z,101010.88
2018-11-26T22:26:13.188Z,101010.33
2018-11-26T22:28:41.975Z,101009.26
2018-11-26T22:31:10.517Z,101011.40
2018-11-26T22:33:39.056Z,101012.01
2018-11-26T22:36:07.733Z,101014.47
2018-11-26T22:38:36.381Z,101013.39
2018-11-26T22:41:05.508Z,101014.06
2018-11-26T22:43:34.076Z,101019.70
2018-11-26T22:46:02.722Z,101025.80
2018-11-26T22:48:31.272Z,101030.80
2018-11-26T22:50:59.956Z,101026.05
2018-11-26T22:53:28.578Z,101031.55
2018-11-26T22:55:57.157Z,101031.55
2018-11-26T22:58:25.773Z,101033.41
2018-11-26T23:00:55.093Z,101033.33
2018-11-26T23:03:25.824Z,101041.66
2018-11-26T23:05:54.380Z,101034.30
2018-11-26T23:08:22.921Z,101039.80
2018-11-26T23:10:51.425Z,101042.28
2018-11-26T23:13:19.982Z,101044.42
2018-11-26T23:15:48.525Z,101037.00
2018-11-26T23:18:17.057Z,101036.03
2018-11-26T23:20:45.612Z,101044.28
2018-11-26T23:23:14.172Z,101040.59
2018-11-26T23:25:42.701Z,101043.11
2018-11-26T23:28:11.258Z,101049.64
2018-11-26T23:30:39.849Z,101050.48
2018-11-26T23:33:08.753Z,101056.46
2018-11-26T23:35:37.237Z,101054.73
2018-11-26T23:38:05.820Z,101063.92
2018-11-26T23:40:34.803Z,101065.70
2018-11-26T23:43:03.328Z,101064.66
2018-11-26T23:45:31.907Z,101065.33
2018-11-26T23:48:00.532Z,101054.55
2018-11-26T23:50:29.064Z,101061.96
2018-11-26T23:52:57.613Z,101053.98
2018-11-26T23:55:26.109Z,101061.40
2018-11-26T23:57:54.658Z,101056.51
